createdAt,value
2018-10-05T00:00:14.434Z,10.18
2018-10-05T00:01:14.424Z,10.24
2018-10-05T00:02:14.424Z,10.62
2018-10-05T00:03:14.417Z,10.44
2018-10-05T00:04:14.415Z,10.34
2018-10-05T00:05:14.405Z,10.42
2018-10-05T00:06:14.400Z,10.66
2018-10-05T00:07:14.400Z,10.83
2018-10-05T00:08:14.389Z,10.40
2018-10-05T00:09:14.386Z,9.93
2018-10-05T00:10:14.382Z,10.30
2018-10-05T00:11:14.387Z,10.28
2018-10-05T00:12:14.370Z,10.22
2018-10-05T00:13:14.366Z,10.18
2018-10-05T00:14:14.364Z,9.96
2018-10-05T00:15:14.369Z,9.78
2018-10-05T00:16:14.347Z,9.75
2018-10-05T00:17:14.344Z,9.75
2018-10-05T00:18:14.337Z,9.96
2018-10-05T00:19:14.335Z,10.22
2018-10-05T00:20:14.331Z,10.03
2018-10-05T00:21:14.325Z,10.25
2018-10-05T00:22:14.313Z,11.20
2018-10-05T00:23:14.315Z,10.58
2018-10-05T00:24:14.316Z,10.65
2018-10-05T00:25:14.303Z,10.86
2018-10-05T00:26:14.298Z,10.80
2018-10-05T00:27:14.290Z,10.70
2018-10-05T00:28:14.289Z,10.96
2018-10-05T00:29:14.279Z,10.53
2018-10-05T00:30:14.286Z,11.09
2018-10-05T00:31:14.272Z,10.86
2018-10-05T00:32:14.285Z,10.91
2018-10-05T00:33:14.261Z,10.42
2018-10-05T00:34:14.259Z,10.42
2018-10-05T00:35:14.247Z,10.60
2018-10-05T00:36:14.251Z,10.59
2018-10-05T00:37:14.237Z,10.71
2018-10-05T00:38:14.236Z,10.56
2018-10-05T00:39:14.227Z,11.49
2018-10-05T00:40:14.224Z,11.86
2018-10-05T00:41:14.215Z,11.82
2018-10-05T00:42:14.209Z,11.96
2018-10-05T00:43:14.219Z,11.36
2018-10-05T00:44:14.201Z,11.35
2018-10-05T00:45:14.194Z,10.92
2018-10-05T00:46:14.191Z,10.89
2018-10-05T00:47:14.187Z,11.10
2018-10-05T00:48:14.184Z,11.09
2018-10-05T00:49:14.176Z,10.70
2018-10-05T00:50:14.173Z,11.20
2018-10-05T00:51:14.164Z,10.84
2018-10-05T00:52:14.171Z,10.65
2018-10-05T00:53:14.257Z,10.74
2018-10-05T00:54:14.147Z,10.56
2018-10-05T00:55:14.147Z,10.86
2018-10-05T00:56:14.141Z,10.84
2018-10-05T00:57:14.133Z,10.77
2018-10-05T00:58:14.127Z,10.83
2018-10-05T00:59:14.125Z,10.84
2018-10-05T01:00:14.120Z,10.73
2018-10-05T01:01:14.115Z,10.55
2018-10-05T01:02:22.739Z,10.42
2018-10-05T01:04:07.504Z,10.60
2018-10-05T01:05:07.491Z,10.47
2018-10-05T01:06:07.485Z,10.71
2018-10-05T01:08:28.512Z,10.58
2018-10-05T01:09:28.497Z,10.51
2018-10-05T01:10:28.488Z,10.47
2018-10-05T01:11:28.584Z,10.56
2018-10-05T01:12:28.480Z,10.86
2018-10-05T01:13:28.474Z,11.06
2018-10-05T01:14:28.465Z,10.99
2018-10-05T01:15:28.462Z,10.60
2018-10-05T01:16:28.459Z,9.94
2018-10-05T01:17:28.450Z,9.38
2018-10-05T01:18:28.449Z,9.09
2018-10-05T01:19:28.439Z,9.18
2018-10-05T01:20:28.439Z,9.35
2018-10-05T01:21:28.434Z,9.50
2018-10-05T01:22:28.423Z,9.27
2018-10-05T01:23:28.421Z,9.27
2018-10-05T01:24:28.419Z,9.28
2018-10-05T01:25:28.409Z,9.85
2018-10-05T01:26:28.410Z,9.78
2018-10-05T01:27:28.401Z,9.75
2018-10-05T01:28:28.406Z,9.99
2018-10-05T01:29:28.385Z,9.61
2018-10-05T01:30:28.383Z,9.34
2018-10-05T01:31:28.380Z,9.70
2018-10-05T01:32:28.378Z,9.97
2018-10-05T01:33:28.367Z,10.06
2018-10-05T01:34:28.365Z,9.78
2018-10-05T01:35:28.360Z,9.96
2018-10-05T01:36:28.355Z,9.73
2018-10-05T01:37:28.349Z,10.60
2018-10-05T01:38:28.354Z,10.98
2018-10-05T01:39:28.340Z,10.68
2018-10-05T01:40:28.332Z,10.92
2018-10-05T01:41:28.330Z,10.52
2018-10-05T01:42:28.321Z,10.63
2018-10-05T01:43:28.315Z,10.99
2018-10-05T01:44:28.318Z,11.10
2018-10-05T01:45:28.310Z,11.34
2018-10-05T01:46:28.304Z,11.29
2018-10-05T01:47:28.300Z,11.20
2018-10-05T01:48:28.293Z,10.63
2018-10-05T01:49:28.286Z,10.53
2018-10-05T01:50:28.279Z,10.22
2018-10-05T01:51:28.276Z,9.96
2018-10-05T01:52:28.272Z,9.96
2018-10-05T01:53:28.263Z,10.42
2018-10-05T01:54:28.260Z,10.71
2018-10-05T01:55:28.254Z,10.40
2018-10-05T01:56:28.245Z,10.55
2018-10-05T01:57:28.243Z,10.36
2018-10-05T01:58:28.234Z,10.14
2018-10-05T01:59:28.233Z,10.56
2018-10-05T02:00:28.225Z,10.56
2018-10-05T02:01:28.220Z,10.32
2018-10-05T02:02:28.221Z,9.94
2018-10-05T02:03:28.207Z,10.01
2018-10-05T02:04:28.207Z,10.19
2018-10-05T02:05:28.197Z,9.93
2018-10-05T02:06:28.196Z,9.83
2018-10-05T02:07:28.191Z,10.04
2018-10-05T02:08:28.182Z,9.97
2018-10-05T02:09:28.181Z,10.14
2018-10-05T02:10:28.175Z,10.01
2018-10-05T02:11:28.176Z,10.04
2018-10-05T02:12:28.164Z,10.32
2018-10-05T02:13:28.154Z,10.32
2018-10-05T02:14:28.152Z,10.42
2018-10-05T02:15:28.146Z,10.39
2018-10-05T02:16:28.140Z,9.94
2018-10-05T02:17:28.138Z,10.00
2018-10-05T02:18:28.133Z,9.91
2018-10-05T02:19:28.136Z,9.91
2018-10-05T02:20:28.112Z,10.19
2018-10-05T02:21:28.116Z,9.85
2018-10-05T02:22:28.111Z,9.75
2018-10-05T02:23:28.103Z,9.49
2018-10-05T02:24:28.104Z,9.35
2018-10-05T02:25:28.092Z,9.67
2018-10-05T02:26:28.091Z,10.12
2018-10-05T02:27:28.098Z,10.34
2018-10-05T02:28:28.076Z,9.93
2018-10-05T02:29:28.065Z,9.73
2018-10-05T02:30:28.066Z,9.71
2018-10-05T02:31:28.062Z,9.71
2018-10-05T02:32:28.058Z,10.03
2018-10-05T02:33:28.046Z,9.99
2018-10-05T02:34:28.048Z,10.28
2018-10-05T02:35:28.038Z,10.34
2018-10-05T02:36:28.029Z,9.94
2018-10-05T02:37:28.027Z,10.26
2018-10-05T02:38:28.025Z,10.06
2018-10-05T02:39:28.016Z,9.82
2018-10-05T02:40:28.012Z,10.19
2018-10-05T02:41:28.044Z,9.71
2018-10-05T02:42:28.005Z,9.81
2018-10-05T02:43:27.992Z,9.57
2018-10-05T02:44:27.989Z,9.38
2018-10-05T02:45:27.979Z,9.58
2018-10-05T02:46:27.978Z,9.70
2018-10-05T02:47:27.979Z,10.19
2018-10-05T02:48:27.967Z,10.37
2018-10-05T02:49:27.966Z,10.63
2018-10-05T02:50:27.953Z,10.78
2018-10-05T02:51:27.951Z,10.68
2018-10-05T02:52:27.944Z,10.71
2018-10-05T02:53:27.940Z,10.42
2018-10-05T02:54:27.935Z,9.78
2018-10-05T02:55:27.930Z,9.35
2018-10-05T02:56:27.924Z,9.78
2018-10-05T02:57:27.918Z,10.19
2018-10-05T02:58:27.916Z,10.71
2018-10-05T02:59:27.908Z,10.36
2018-10-05T03:14:43.679Z,8.69
2018-10-05T03:15:43.642Z,8.36
2018-10-05T03:16:43.635Z,9.10
2018-10-05T03:17:43.628Z,8.97
2018-10-05T03:18:43.618Z,9.25
2018-10-05T03:19:43.662Z,9.53
2018-10-05T03:20:43.601Z,9.46
2018-10-05T03:21:43.591Z,9.13
2018-10-05T03:22:43.584Z,9.04
2018-10-05T03:23:43.577Z,8.93
2018-10-05T03:24:43.571Z,9.24
2018-10-05T03:25:43.562Z,9.68
2018-10-05T03:26:43.553Z,9.39
2018-10-05T03:27:43.561Z,9.15
2018-10-05T03:28:43.548Z,8.94
2018-10-05T03:29:43.541Z,9.70
2018-10-05T03:30:43.528Z,10.00
2018-10-05T03:31:43.533Z,9.83
2018-10-05T03:32:43.521Z,9.88
2018-10-05T03:33:43.511Z,9.61
2018-10-05T03:34:43.507Z,9.10
2018-10-05T03:35:43.500Z,8.83
2018-10-05T03:36:43.490Z,9.06
2018-10-05T03:37:43.485Z,8.88
2018-10-05T03:38:43.480Z,8.78
2018-10-05T03:39:43.473Z,8.79
2018-10-05T03:40:43.473Z,9.05
2018-10-05T03:41:43.462Z,9.24
2018-10-05T03:42:43.461Z,8.87
2018-10-05T03:43:43.452Z,8.78
2018-10-05T03:44:43.442Z,8.60
2018-10-05T03:45:43.435Z,9.25
2018-10-05T03:46:43.429Z,9.57
2018-10-05T03:47:43.428Z,10.10
2018-10-05T03:48:43.422Z,9.86
2018-10-05T03:49:43.416Z,9.28
2018-10-05T03:50:43.405Z,8.84
2018-10-05T03:51:43.403Z,8.66
2018-10-05T03:52:43.394Z,8.71
2018-10-05T03:53:43.389Z,8.66
2018-10-05T03:54:43.380Z,8.68
2018-10-05T03:55:43.378Z,8.55
2018-10-05T03:56:51.997Z,8.79
2018-10-05T03:58:36.784Z,8.68
2018-10-05T03:59:36.745Z,9.30
2018-10-05T04:00:36.771Z,9.09
2018-10-05T04:01:36.749Z,8.90
2018-10-05T04:02:36.723Z,9.20
2018-10-05T04:04:57.749Z,8.72
2018-10-05T04:05:57.724Z,8.53
2018-10-05T04:06:57.725Z,8.26
2018-10-05T04:07:57.704Z,8.63
2018-10-05T04:08:57.713Z,8.71
2018-10-05T04:09:57.701Z,8.63
2018-10-05T04:10:57.694Z,9.58
2018-10-05T04:11:57.688Z,8.94
2018-10-05T04:12:57.685Z,8.51
2018-10-05T04:13:57.683Z,8.32
2018-10-05T04:14:57.667Z,8.30
2018-10-05T04:15:57.661Z,9.09
2018-10-05T04:16:57.651Z,9.27
2018-10-05T04:17:57.656Z,8.79
2018-10-05T04:18:57.648Z,8.54
2018-10-05T04:19:57.637Z,8.29
2018-10-05T04:20:57.636Z,8.22
2018-10-05T04:21:57.628Z,8.14
2018-10-05T04:22:57.632Z,8.39
2018-10-05T04:23:57.614Z,8.42
2018-10-05T04:24:57.615Z,9.20
2018-10-05T04:25:57.600Z,9.38
2018-10-05T04:26:57.604Z,8.71
2018-10-05T04:27:57.600Z,8.32
2018-10-05T04:28:57.601Z,8.25
2018-10-05T04:29:57.588Z,8.03
2018-10-05T04:30:57.572Z,8.51
2018-10-05T04:31:57.563Z,8.50
2018-10-05T04:32:57.571Z,8.32
2018-10-05T04:33:57.581Z,8.26
2018-10-05T04:34:57.552Z,8.14
2018-10-05T04:35:57.547Z,8.42
2018-10-05T04:36:57.539Z,8.65
2018-10-05T04:37:57.559Z,8.25
2018-10-05T04:38:57.528Z,8.57
2018-10-05T04:39:57.523Z,7.96
2018-10-05T04:40:57.512Z,7.44
2018-10-05T04:41:57.506Z,6.90
2018-10-05T04:42:57.506Z,6.83
2018-10-05T04:43:57.498Z,7.31
2018-10-05T04:44:57.501Z,7.60
2018-10-05T04:45:57.488Z,7.82
2018-10-05T04:46:57.488Z,7.87
2018-10-05T04:47:57.477Z,7.90
2018-10-05T04:48:57.486Z,7.96
2018-10-05T04:49:57.462Z,8.07
2018-10-05T04:50:57.472Z,8.57
2018-10-05T04:51:57.445Z,8.88
2018-10-05T04:52:57.441Z,8.30
2018-10-05T04:53:57.465Z,8.08
2018-10-05T04:54:57.430Z,7.92
2018-10-05T04:55:57.420Z,7.96
2018-10-05T04:56:57.461Z,7.99
2018-10-05T04:57:57.424Z,8.03
2018-10-05T04:58:57.417Z,8.15
2018-10-05T04:59:57.405Z,7.99
2018-10-05T05:00:57.390Z,7.75
2018-10-05T05:01:57.389Z,7.81
2018-10-05T05:02:57.403Z,7.74
2018-10-05T05:03:57.370Z,7.75
2018-10-05T05:04:57.366Z,7.58
2018-10-05T05:05:57.352Z,7.71
2018-10-05T05:06:57.354Z,7.67
2018-10-05T05:07:57.351Z,7.66
2018-10-05T05:08:57.336Z,7.67
2018-10-05T05:09:57.341Z,8.12
2018-10-05T05:10:57.325Z,8.22
2018-10-05T05:11:57.323Z,7.71
2018-10-05T05:12:57.317Z,7.84
2018-10-05T05:13:57.306Z,7.87
2018-10-05T05:14:57.297Z,8.10
2018-10-05T05:15:57.300Z,7.96
2018-10-05T05:16:57.298Z,8.07
2018-10-05T05:17:57.282Z,8.04
2018-10-05T05:18:58.264Z,7.79
2018-10-05T05:19:57.266Z,7.71
2018-10-05T05:20:57.261Z,7.74
2018-10-05T05:21:57.256Z,7.42
2018-10-05T05:22:57.248Z,7.47
2018-10-05T05:23:57.245Z,7.45
2018-10-05T05:24:57.232Z,7.75
2018-10-05T05:25:57.230Z,7.81
2018-10-05T05:26:57.217Z,8.12
2018-10-05T05:27:57.213Z,7.85
2018-10-05T05:28:57.201Z,7.63
2018-10-05T05:29:57.198Z,7.53
2018-10-05T05:30:57.195Z,7.69
2018-10-05T05:31:57.192Z,7.71
2018-10-05T05:32:57.184Z,7.81
2018-10-05T05:33:57.187Z,7.74
2018-10-05T05:34:57.166Z,7.99
2018-10-05T05:35:57.166Z,7.81
2018-10-05T05:36:57.160Z,7.74
2018-10-05T05:37:57.153Z,7.78
2018-10-05T05:38:57.148Z,7.75
2018-10-05T05:39:57.139Z,7.47
2018-10-05T05:40:57.125Z,7.41
2018-10-05T05:41:57.127Z,7.44
2018-10-05T05:42:57.143Z,8.07
2018-10-05T05:43:57.116Z,8.15
2018-10-05T05:44:57.103Z,8.08
2018-10-05T05:45:57.101Z,8.03
2018-10-05T05:46:57.138Z,7.93
2018-10-05T05:47:57.094Z,7.82
2018-10-05T05:48:57.074Z,7.69
2018-10-05T05:49:57.079Z,8.10
2018-10-05T05:50:57.072Z,8.08
2018-10-05T05:51:57.065Z,8.08
2018-10-05T05:52:57.064Z,8.78
2018-10-05T05:53:57.077Z,9.20
2018-10-05T05:54:57.040Z,9.18
2018-10-05T05:55:57.059Z,9.18
2018-10-05T05:56:57.090Z,8.73
2018-10-05T05:57:57.058Z,8.45
2018-10-05T05:58:57.034Z,8.96
2018-10-05T05:59:57.013Z,9.24
2018-10-05T06:00:57.048Z,8.94
2018-10-05T06:01:57.014Z,8.53
2018-10-05T06:02:57.000Z,8.08
2018-10-05T06:03:56.990Z,8.17
2018-10-05T06:04:57.003Z,7.99
2018-10-05T06:05:56.964Z,8.26
2018-10-05T06:06:56.962Z,8.79
2018-10-05T06:07:57.014Z,8.30
2018-10-05T06:08:56.958Z,7.96
2018-10-05T06:09:56.944Z,7.82
2018-10-05T06:10:56.948Z,7.82
2018-10-05T06:11:56.932Z,7.31
2018-10-05T06:12:56.924Z,6.80
2018-10-05T06:13:56.917Z,6.72
2018-10-05T06:14:56.912Z,6.61
2018-10-05T06:15:56.971Z,6.62
2018-10-05T06:16:56.908Z,6.53
2018-10-05T06:17:56.891Z,6.61
2018-10-05T06:18:56.888Z,6.53
2018-10-05T06:19:56.879Z,6.73
2018-10-05T06:20:56.873Z,7.24
2018-10-05T06:21:57.179Z,7.89
2018-10-05T06:22:56.866Z,8.30
2018-10-05T06:23:56.855Z,8.71
2018-10-05T06:24:56.846Z,8.65
2018-10-05T06:25:56.838Z,8.62
2018-10-05T06:26:56.836Z,8.66
2018-10-05T06:27:56.832Z,8.91
2018-10-05T06:28:56.832Z,8.93
2018-10-05T06:29:56.848Z,9.12
2018-10-05T06:30:56.899Z,8.93
2018-10-05T06:31:56.799Z,9.15
2018-10-05T06:32:56.806Z,9.35
2018-10-05T06:33:56.795Z,9.34
2018-10-05T06:34:56.787Z,9.10
2018-10-05T06:35:56.779Z,8.58
2018-10-05T06:36:56.768Z,8.10
2018-10-05T06:37:56.771Z,7.93
2018-10-05T06:38:56.770Z,7.93
2018-10-05T06:39:56.751Z,8.18
2018-10-05T06:40:56.759Z,8.28
2018-10-05T06:41:56.811Z,8.48
2018-10-05T06:42:56.729Z,8.12
2018-10-05T06:43:56.735Z,8.00
2018-10-05T06:44:56.738Z,8.15
2018-10-05T06:45:56.713Z,8.22
2018-10-05T06:46:56.705Z,8.08
2018-10-05T06:47:56.713Z,8.07
2018-10-05T06:48:56.698Z,8.04
2018-10-05T06:49:56.694Z,8.07
2018-10-05T06:50:56.681Z,8.04
2018-10-05T06:51:56.681Z,8.02
2018-10-05T06:53:05.312Z,8.15
2018-10-05T06:54:50.091Z,8.29
2018-10-05T06:55:50.054Z,8.32
2018-10-05T06:56:50.054Z,8.81
2018-10-05T06:57:50.043Z,9.02
2018-10-05T06:58:50.037Z,8.81
2018-10-05T06:59:50.040Z,9.45
2018-10-05T07:00:58.653Z,9.57
2018-10-05T07:02:43.424Z,9.06
2018-10-05T07:03:43.406Z,8.79
2018-10-05T07:04:43.401Z,8.72
2018-10-05T07:05:43.392Z,8.96
2018-10-05T07:06:43.385Z,8.93
2018-10-05T07:07:43.422Z,8.81
2018-10-05T07:08:43.378Z,9.12
2018-10-05T07:09:43.384Z,9.13
2018-10-05T07:10:43.397Z,9.18
2018-10-05T07:11:43.354Z,9.13
2018-10-05T07:12:43.358Z,9.20
2018-10-05T07:13:43.344Z,9.40
2018-10-05T07:14:43.343Z,9.23
2018-10-05T07:15:43.347Z,9.28
2018-10-05T07:16:43.329Z,9.24
2018-10-05T07:17:43.331Z,9.46
2018-10-05T07:18:43.330Z,9.66
2018-10-05T07:19:43.309Z,9.46
2018-10-05T07:20:43.330Z,9.46
2018-10-05T07:21:43.305Z,9.57
2018-10-05T07:22:43.296Z,9.71
2018-10-05T07:23:43.288Z,9.58
2018-10-05T07:24:43.287Z,9.71
2018-10-05T07:25:43.287Z,9.75
2018-10-05T07:26:43.273Z,9.94
2018-10-05T07:27:43.267Z,9.86
2018-10-05T07:28:43.308Z,9.83
2018-10-05T07:29:43.276Z,9.78
2018-10-05T07:30:43.247Z,9.66
2018-10-05T07:31:43.243Z,9.99
2018-10-05T07:32:43.245Z,10.03
2018-10-05T07:33:43.227Z,9.97
2018-10-05T07:34:43.227Z,9.88
2018-10-05T07:35:43.219Z,9.78
2018-10-05T07:36:43.265Z,9.94
2018-10-05T07:37:43.209Z,9.97
2018-10-05T07:38:43.204Z,9.96
2018-10-05T07:39:43.214Z,10.00
2018-10-05T07:40:43.195Z,9.97
2018-10-05T07:41:43.186Z,9.86
2018-10-05T07:42:43.192Z,9.96
2018-10-05T07:43:43.182Z,9.96
2018-10-05T07:44:43.187Z,9.93
2018-10-05T07:45:43.167Z,10.10
2018-10-05T07:46:43.168Z,10.10
2018-10-05T07:47:43.153Z,10.14
2018-10-05T07:48:43.154Z,10.14
2018-10-05T07:49:43.148Z,10.21
2018-10-05T07:50:43.140Z,10.12
2018-10-05T07:51:43.183Z,10.24
2018-10-05T07:52:43.131Z,10.15
2018-10-05T07:53:43.134Z,10.19
2018-10-05T07:54:43.125Z,10.18
2018-10-05T07:55:43.118Z,10.14
2018-10-05T07:56:43.117Z,10.17
2018-10-05T07:57:43.262Z,10.19
2018-10-05T07:58:43.098Z,10.21
2018-10-05T07:59:43.098Z,10.26
2018-10-05T08:00:43.089Z,10.36
2018-10-05T08:01:43.088Z,10.32
2018-10-05T08:02:43.088Z,10.39
2018-10-05T08:03:43.077Z,10.42
2018-10-05T08:04:43.075Z,10.55
2018-10-05T08:05:43.067Z,10.52
2018-10-05T08:06:43.081Z,10.53
2018-10-05T08:07:43.062Z,10.52
2018-10-05T08:08:43.046Z,10.43
2018-10-05T08:09:43.237Z,10.56
2018-10-05T08:10:43.045Z,10.46
2018-10-05T08:11:43.053Z,10.52
2018-10-05T08:12:43.041Z,10.58
2018-10-05T08:13:43.028Z,10.58
2018-10-05T08:14:43.034Z,10.65
2018-10-05T08:15:43.022Z,10.73
2018-10-05T08:16:43.034Z,10.74
2018-10-05T08:17:43.025Z,10.78
2018-10-05T08:18:43.015Z,10.80
2018-10-05T08:19:43.003Z,10.89
2018-10-05T08:20:42.995Z,10.88
2018-10-05T08:21:43.008Z,10.98
2018-10-05T08:22:42.988Z,10.89
2018-10-05T08:23:42.986Z,11.02
2018-10-05T08:24:42.970Z,11.10
2018-10-05T08:25:42.971Z,10.99
2018-10-05T08:26:42.965Z,11.01
2018-10-05T08:27:42.983Z,11.01
2018-10-05T08:28:42.961Z,11.02
2018-10-05T08:29:42.949Z,11.07
2018-10-05T08:30:42.964Z,11.09
2018-10-05T08:31:42.958Z,11.06
2018-10-05T08:32:42.937Z,11.21
2018-10-05T08:33:42.935Z,11.25
2018-10-05T08:34:42.924Z,11.29
2018-10-05T08:35:42.932Z,11.32
2018-10-05T08:36:42.914Z,11.35
2018-10-05T08:37:42.916Z,11.46
2018-10-05T08:38:42.907Z,11.52
2018-10-05T08:39:42.935Z,11.62
2018-10-05T08:40:42.894Z,11.50
2018-10-05T08:41:42.902Z,11.49
2018-10-05T08:42:42.910Z,11.41
2018-10-05T08:43:42.890Z,11.44
2018-10-05T08:44:42.886Z,11.53
2018-10-05T08:45:42.882Z,11.52
2018-10-05T08:46:42.882Z,11.52
2018-10-05T08:47:42.876Z,11.52
2018-10-05T08:48:42.865Z,11.53
2018-10-05T08:49:42.872Z,11.46
2018-10-05T08:50:42.856Z,11.59
2018-10-05T08:51:42.880Z,11.49
2018-10-05T08:52:42.855Z,11.50
2018-10-05T08:53:42.850Z,11.74
2018-10-05T08:54:42.840Z,11.72
2018-10-05T08:55:42.835Z,11.82
2018-10-05T08:56:42.831Z,11.78
2018-10-05T08:57:42.835Z,11.94
2018-10-05T08:58:42.817Z,12.06
2018-10-05T08:59:42.825Z,12.01
2018-10-05T09:00:42.813Z,12.02
2018-10-05T09:01:42.809Z,12.06
2018-10-05T09:02:42.807Z,12.06
2018-10-05T09:03:42.801Z,12.02
2018-10-05T09:04:42.808Z,12.11
2018-10-05T09:05:42.835Z,12.09
2018-10-05T09:06:42.817Z,11.97
2018-10-05T09:07:42.793Z,12.12
2018-10-05T09:08:42.792Z,12.12
2018-10-05T09:09:42.776Z,12.13
2018-10-05T09:10:42.779Z,12.15
2018-10-05T09:11:42.767Z,12.19
2018-10-05T09:12:42.764Z,12.23
2018-10-05T09:13:42.761Z,12.27
2018-10-05T09:14:42.753Z,12.15
2018-10-05T09:15:42.762Z,12.15
2018-10-05T09:16:42.773Z,12.16
2018-10-05T09:17:42.806Z,12.11
2018-10-05T09:18:42.766Z,12.27
2018-10-05T09:19:42.736Z,12.37
2018-10-05T09:20:42.742Z,12.23
2018-10-05T09:21:42.726Z,12.42
2018-10-05T09:22:42.727Z,12.52
2018-10-05T09:23:42.729Z,12.51
2018-10-05T09:24:42.727Z,12.54
2018-10-05T09:25:42.730Z,12.44
2018-10-05T09:26:42.730Z,12.60
2018-10-05T09:27:42.720Z,12.49
2018-10-05T09:28:42.703Z,12.59
2018-10-05T09:29:42.706Z,12.59
2018-10-05T09:30:42.734Z,12.51
2018-10-05T09:31:42.693Z,12.63
2018-10-05T09:32:42.693Z,12.59
2018-10-05T09:33:42.697Z,12.52
2018-10-05T09:34:42.685Z,12.62
2018-10-05T09:35:42.683Z,12.67
2018-10-05T09:36:42.681Z,12.77
2018-10-05T09:37:42.711Z,12.95
2018-10-05T09:38:42.667Z,12.96
2018-10-05T09:39:42.661Z,12.81
2018-10-05T09:40:42.666Z,13.00
2018-10-05T09:41:42.657Z,12.97
2018-10-05T09:42:42.647Z,12.97
2018-10-05T09:43:42.669Z,13.00
2018-10-05T09:44:42.659Z,12.89
2018-10-05T09:45:42.643Z,12.96
2018-10-05T09:46:51.272Z,13.09
2018-10-05T09:48:36.067Z,13.33
2018-10-05T09:49:36.011Z,13.30
2018-10-05T09:50:36.011Z,13.25
2018-10-05T09:51:36.008Z,13.29
2018-10-05T09:53:56.581Z,13.30
2018-10-05T09:56:17.600Z,13.25
2018-10-05T09:57:17.558Z,13.29
2018-10-05T09:58:17.560Z,13.38
2018-10-05T09:59:17.551Z,13.27
2018-10-05T10:00:17.596Z,13.36
2018-10-05T10:01:17.554Z,13.25
2018-10-05T10:02:17.538Z,13.25
2018-10-05T10:03:17.544Z,13.32
2018-10-05T10:04:17.533Z,13.29
2018-10-05T10:05:17.536Z,13.32
2018-10-05T10:06:17.530Z,13.40
2018-10-05T10:07:17.525Z,13.52
2018-10-05T10:08:17.568Z,13.63
2018-10-05T10:09:17.525Z,13.76
2018-10-05T10:10:17.520Z,13.84
2018-10-05T10:11:17.515Z,13.89
2018-10-05T10:12:17.506Z,14.13
2018-10-05T10:13:17.506Z,14.07
2018-10-05T10:14:17.504Z,14.02
2018-10-05T10:15:17.501Z,14.06
2018-10-05T10:16:17.497Z,14.07
2018-10-05T10:17:17.490Z,14.09
2018-10-05T10:18:17.494Z,14.20
2018-10-05T10:19:17.484Z,14.21
2018-10-05T10:20:17.480Z,14.09
2018-10-05T10:21:17.486Z,13.98
2018-10-05T10:22:17.477Z,14.27
2018-10-05T10:23:17.475Z,14.31
2018-10-05T10:24:17.472Z,14.31
2018-10-05T10:25:17.471Z,14.42
2018-10-05T10:26:17.466Z,14.38
2018-10-05T10:27:17.463Z,14.37
2018-10-05T10:28:17.523Z,14.38
2018-10-05T10:29:17.673Z,14.47
2018-10-05T10:30:17.471Z,14.49
2018-10-05T10:31:17.546Z,14.42
2018-10-05T10:32:17.537Z,14.31
2018-10-05T10:33:17.449Z,14.43
2018-10-05T10:34:17.513Z,14.44
2018-10-05T10:35:17.454Z,14.52
2018-10-05T10:36:17.527Z,14.37
2018-10-05T10:37:17.460Z,14.52
2018-10-05T10:38:17.460Z,14.62
2018-10-05T10:39:17.465Z,14.68
2018-10-05T10:40:17.433Z,14.72
2018-10-05T10:41:17.501Z,14.72
2018-10-05T10:42:17.678Z,14.74
2018-10-05T10:43:17.430Z,14.67
2018-10-05T10:44:17.459Z,14.69
2018-10-05T10:45:17.457Z,14.75
2018-10-05T10:46:17.411Z,14.68
2018-10-05T10:47:17.451Z,15.06
2018-10-05T10:48:17.458Z,15.21
2018-10-05T10:49:17.420Z,15.27
2018-10-05T10:50:17.439Z,15.20
2018-10-05T10:51:17.502Z,15.02
2018-10-05T10:52:17.403Z,15.01
2018-10-05T10:53:17.398Z,15.17
2018-10-05T10:54:17.409Z,15.30
2018-10-05T10:55:17.391Z,15.06
2018-10-05T10:56:17.439Z,15.06
2018-10-05T10:57:17.408Z,15.08
2018-10-05T10:58:17.414Z,15.12
2018-10-05T10:59:17.421Z,15.30
2018-10-05T11:00:17.384Z,15.36
2018-10-05T11:01:17.408Z,15.30
2018-10-05T11:02:17.382Z,15.06
2018-10-05T11:03:17.392Z,14.88
2018-10-05T11:04:17.420Z,14.93
2018-10-05T11:05:17.388Z,15.08
2018-10-05T11:06:17.401Z,15.42
2018-10-05T11:07:17.404Z,15.48
2018-10-05T11:08:17.391Z,15.57
2018-10-05T11:09:17.377Z,15.96
2018-10-05T11:10:17.384Z,16.00
2018-10-05T11:11:17.387Z,15.63
2018-10-05T11:12:17.467Z,15.82
2018-10-05T11:13:17.374Z,15.86
2018-10-05T11:14:17.360Z,15.93
2018-10-05T11:15:17.358Z,15.93
2018-10-05T11:16:17.358Z,16.22
2018-10-05T11:17:17.369Z,16.07
2018-10-05T11:18:17.482Z,16.00
2018-10-05T11:19:17.367Z,16.30
2018-10-05T11:20:17.371Z,16.22
2018-10-05T11:21:17.349Z,16.04
2018-10-05T11:22:17.381Z,16.31
2018-10-05T11:23:17.419Z,16.55
2018-10-05T11:24:17.337Z,16.92
2018-10-05T11:25:17.341Z,16.95
2018-10-05T11:26:17.332Z,16.77
2018-10-05T11:27:17.332Z,16.85
2018-10-05T11:28:17.340Z,16.83
2018-10-05T11:29:17.334Z,16.90
2018-10-05T11:30:17.331Z,16.92
2018-10-05T11:31:17.330Z,16.93
2018-10-05T11:32:17.331Z,16.75
2018-10-05T11:33:17.321Z,16.74
2018-10-05T11:34:17.327Z,16.80
2018-10-05T11:35:17.321Z,16.59
2018-10-05T11:36:17.325Z,17.04
2018-10-05T11:37:17.321Z,17.11
2018-10-05T11:38:17.329Z,17.17
2018-10-05T11:39:17.326Z,17.28
2018-10-05T11:40:17.318Z,17.00
2018-10-05T11:41:17.341Z,16.93
2018-10-05T11:42:17.313Z,16.71
2018-10-05T11:43:17.305Z,16.81
2018-10-05T11:44:17.309Z,16.50
2018-10-05T11:45:17.317Z,16.45
2018-10-05T11:46:17.349Z,16.58
2018-10-05T11:47:17.325Z,16.49
2018-10-05T11:48:17.307Z,16.80
2018-10-05T11:49:17.306Z,16.56
2018-10-05T11:50:17.303Z,16.73
2018-10-05T11:51:17.300Z,16.81
2018-10-05T11:52:17.336Z,16.95
2018-10-05T11:53:17.306Z,16.90
2018-10-05T11:54:17.337Z,16.85
2018-10-05T11:55:17.305Z,16.89
2018-10-05T11:56:17.292Z,16.83
2018-10-05T11:57:17.310Z,16.96
2018-10-05T11:58:17.300Z,16.86
2018-10-05T11:59:17.300Z,16.71
2018-10-05T12:00:17.302Z,16.78
2018-10-05T12:01:17.296Z,16.81
2018-10-05T12:02:17.293Z,16.92
2018-10-05T12:03:17.292Z,16.96
2018-10-05T12:04:17.290Z,16.95
2018-10-05T12:05:17.409Z,17.23
2018-10-05T12:06:17.315Z,17.30
2018-10-05T12:07:17.307Z,17.54
2018-10-05T12:08:17.310Z,17.28
2018-10-05T12:09:17.291Z,16.98
2018-10-05T12:10:17.292Z,17.10
2018-10-05T12:11:17.288Z,17.18
2018-10-05T12:12:17.282Z,17.17
2018-10-05T12:13:17.285Z,17.13
2018-10-05T12:14:17.282Z,17.14
2018-10-05T12:15:17.285Z,17.23
2018-10-05T12:16:17.281Z,17.33
2018-10-05T12:17:17.283Z,17.36
2018-10-05T12:18:17.328Z,17.14
2018-10-05T12:19:17.279Z,17.28
2018-10-05T12:20:17.281Z,17.36
2018-10-05T12:21:17.284Z,17.29
2018-10-05T12:22:17.275Z,17.26
2018-10-05T12:23:17.279Z,17.25
2018-10-05T12:24:17.274Z,17.17
2018-10-05T12:25:17.283Z,17.25
2018-10-05T12:26:17.285Z,17.23
2018-10-05T12:27:17.294Z,17.30
2018-10-05T12:28:17.287Z,17.17
2018-10-05T12:29:17.272Z,17.33
2018-10-05T12:30:17.453Z,17.23
2018-10-05T12:31:17.272Z,17.47
2018-10-05T12:32:17.275Z,17.74
2018-10-05T12:33:17.291Z,17.76
2018-10-05T12:34:17.273Z,17.73
2018-10-05T12:35:17.276Z,17.81
2018-10-05T12:36:17.279Z,17.71
2018-10-05T12:37:17.443Z,17.64
2018-10-05T12:38:17.275Z,17.81
2018-10-05T12:39:17.270Z,17.82
2018-10-05T12:40:17.273Z,17.82
2018-10-05T12:41:17.274Z,17.78
2018-10-05T12:42:27.684Z,17.81
2018-10-05T12:44:10.696Z,17.76
2018-10-05T12:45:10.672Z,17.88
2018-10-05T12:46:10.680Z,17.59
2018-10-05T12:47:10.672Z,17.71
2018-10-05T12:48:19.303Z,17.76
2018-10-05T12:50:04.139Z,17.84
2018-10-05T12:51:04.054Z,17.84
2018-10-05T12:52:04.053Z,18.21
2018-10-05T12:53:04.060Z,18.13
2018-10-05T12:54:04.058Z,17.84
2018-10-05T12:55:04.056Z,17.82
2018-10-05T12:56:04.065Z,17.99
2018-10-05T12:57:04.058Z,18.19
2018-10-05T12:58:04.090Z,18.21
2018-10-05T12:59:04.057Z,18.44
2018-10-05T13:00:04.053Z,18.55
2018-10-05T13:01:04.052Z,18.57
2018-10-05T13:02:04.050Z,18.22
2018-10-05T13:03:04.056Z,18.29
2018-10-05T13:04:04.060Z,18.28
2018-10-05T13:05:04.142Z,18.12
2018-10-05T13:06:04.060Z,17.84
2018-10-05T13:07:04.051Z,17.92
2018-10-05T13:08:04.058Z,17.79
2018-10-05T13:09:04.074Z,17.85
2018-10-05T13:10:04.051Z,18.04
2018-10-05T13:11:04.054Z,18.29
2018-10-05T13:12:04.052Z,18.36
2018-10-05T13:13:04.166Z,18.37
2018-10-05T13:14:04.085Z,18.33
2018-10-05T13:15:04.055Z,18.39
2018-10-05T13:16:04.050Z,18.44
2018-10-05T13:17:04.054Z,18.40
2018-10-05T13:18:04.054Z,18.28
2018-10-05T13:19:04.051Z,18.29
2018-10-05T13:20:04.053Z,18.33
2018-10-05T13:21:04.067Z,18.33
2018-10-05T13:22:04.117Z,18.25
2018-10-05T13:23:04.067Z,18.31
2018-10-05T13:24:04.089Z,18.40
2018-10-05T13:25:04.081Z,18.39
2018-10-05T13:26:04.082Z,18.19
2018-10-05T13:27:04.058Z,18.18
2018-10-05T13:28:04.062Z,18.40